Time;durP1;ratioP1;P1;durP2;ratioP2;P2;SDS_P1;SDS_P2;PMS_P1;PMS_P2;Temp;Humidity;BMP_temperature;BMP_pressure;BME280_temperature;BME280_humidity;BME280_pressure;Samples;Min_cycle;Max_cycle;Signal;HPM_P1;HPM_P2
2023/01/18 00:04:04;;;;;;;5.18;4.07;;;;;;;-2.19;100.00;95657.56;15277447;19;20573;-48
2023/01/18 00:09:29;;;;;;;4.65;3.38;;;;;;;-2.20;100.00;95651.47;15273034;19;20041;-48
2023/01/18 00:14:54;;;;;;;4.38;3.80;;;;;;;-2.17;100.00;95647.69;15269505;19;20383;-49
2023/01/18 00:20:22;;;;;;;7.22;3.83;;;;;;;-2.15;100.00;95648.38;15270033;19;20729;-50
2023/01/18 00:25:48;;;;;;;4.22;3.47;;;;;;;-2.14;100.00;95647.41;15275800;19;20014;-52
2023/01/18 00:31:17;;;;;;;4.88;3.67;;;;;;;-2.12;100.00;95649.88;15270344;19;20025;-51
2023/01/18 00:36:44;;;;;;;4.57;3.53;;;;;;;-2.11;100.00;95664.72;15268937;19;20021;-49
2023/01/18 00:47:47;;;;;;;3.83;3.45;;;;;;;-2.09;100.00;95682.06;15268302;19;20018;-54
2023/01/18 00:53:14;;;;;;;5.22;3.50;;;;;;;-2.15;100.00;95687.09;15276492;19;20018;-50
2023/01/18 00:58:39;;;;;;;4.22;3.70;;;;;;;-2.27;100.00;95697.03;15267997;19;20415;-55
2023/01/18 01:09:45;;;;;;;4.20;3.78;;;;;;;-2.21;100.00;95706.97;15262984;19;20348;-49
2023/01/18 01:26:27;;;;;;;5.38;3.40;;;;;;;-2.04;100.00;95693.00;15261662;19;20018;-52
2023/01/18 01:31:52;;;;;;;3.70;3.35;;;;;;;-2.00;100.00;95692.69;15267446;19;20490;-50
2023/01/18 01:37:16;;;;;;;4.88;2.83;;;;;;;-1.87;100.00;95693.97;15264837;19;20021;-53
2023/01/18 01:42:43;;;;;;;3.33;2.60;;;;;;;-1.67;100.00;95692.97;15272778;19;20031;-52
2023/01/18 01:48:09;;;;;;;4.05;3.00;;;;;;;-1.57;100.00;95691.06;15262892;19;20014;-53
2023/01/18 01:53:34;;;;;;;7.28;3.60;;;;;;;-1.41;100.00;95691.19;15273367;19;20018;-50
2023/01/18 01:59:04;;;;;;;4.07;3.53;;;;;;;-1.26;100.00;95690.63;15261207;19;20098;-50
2023/01/18 02:04:29;;;;;;;4.28;3.40;;;;;;;-1.16;100.00;95690.53;15271238;19;20015;-52
2023/01/18 02:09:54;;;;;;;5.93;3.35;;;;;;;-1.12;100.00;95686.59;15260348;19;20074;-49
2023/01/18 02:15:30;;;;;;;3.85;3.10;;;;;;;-1.04;100.00;95683.16;15268081;19;20089;-52
2023/01/18 02:21:18;;;;;;;3.95;3.25;;;;;;;-0.96;100.00;95676.13;15272106;19;20018;-54
2023/01/18 02:27:00;;;;;;;6.38;3.95;;;;;;;-0.91;100.00;95683.56;15276009;19;20419;-53
2023/01/18 02:32:40;;;;;;;4.32;3.47;;;;;;;-0.84;100.00;95687.25;15282818;19;20825;-52
2023/01/18 02:38:15;;;;;;;4.38;3.55;;;;;;;-0.83;100.00;95685.44;15274793;19;20039;-51
2023/01/18 02:49:31;;;;;;;3.90;3.33;;;;;;;-0.74;100.00;95681.00;15272780;19;20024;-53
2023/01/18 02:54:57;;;;;;;4.68;3.60;;;;;;;-0.72;100.00;95681.69;15278806;19;20102;-51
2023/01/18 03:00:25;;;;;;;4.88;3.90;;;;;;;-0.77;100.00;95674.25;15276040;19;20479;-55
2023/01/18 03:05:56;;;;;;;3.88;3.50;;;;;;;-0.73;100.00;95680.03;15274573;19;20640;-50
2023/01/18 03:11:27;;;;;;;4.15;3.20;;;;;;;-0.68;100.00;95689.13;15276054;19;20029;-54
2023/01/18 03:17:11;;;;;;;3.58;3.13;;;;;;;-0.64;100.00;95679.88;15276929;19;20022;-53
2023/01/18 03:34:05;;;;;;;4.05;3.40;;;;;;;-0.58;100.00;95682.88;15279513;19;20633;-51
2023/01/18 03:39:36;;;;;;;3.97;3.40;;;;;;;-0.60;100.00;95691.00;15270471;19;20097;-53
2023/01/18 03:45:07;;;;;;;4.18;3.10;;;;;;;-0.60;100.00;95691.00;15280296;19;20322;-53
2023/01/18 03:50:38;;;;;;;4.38;3.08;;;;;;;-0.60;100.00;95692.78;15275403;19;20017;-54
2023/01/18 03:56:11;;;;;;;4.40;3.20;;;;;;;-0.60;100.00;95692.78;15278477;19;20024;-51
2023/01/18 04:01:36;;;;;;;6.47;3.10;;;;;;;-0.59;100.00;95689.16;15270974;19;20021;-55
2023/01/18 04:07:01;;;;;;;2.85;2.65;;;;;;;-0.52;100.00;95695.47;15269187;19;20105;-50
2023/01/18 04:12:29;;;;;;;4.63;3.15;;;;;;;-0.57;100.00;95693.28;15271762;19;20467;-56
2023/01/18 04:18:02;;;;;;;4.68;2.70;;;;;;;-0.57;100.00;95697.78;15273199;19;20025;-53
2023/01/18 04:23:28;;;;;;;4.57;2.97;;;;;;;-0.58;100.00;95699.56;15276524;19;20090;-53
2023/01/18 04:28:55;;;;;;;3.72;3.17;;;;;;;-0.65;100.00;95706.50;15267343;19;20086;-49
2023/01/18 04:34:21;;;;;;;4.20;3.38;;;;;;;-0.68;100.00;95705.00;15273620;19;20019;-53
2023/01/18 04:39:46;;;;;;;5.50;3.65;;;;;;;-0.71;100.00;95709.78;15271009;19;20053;-55
2023/01/18 04:45:17;;;;;;;4.20;3.67;;;;;;;-0.77;100.00;95703.31;15275234;19;20342;-51
2023/01/18 04:50:45;;;;;;;4.68;3.50;;;;;;;-0.76;100.00;95704.94;15265541;19;20018;-53
2023/01/18 04:56:10;;;;;;;4.53;3.50;;;;;;;-0.86;100.00;95706.88;15275606;19;20015;-54
2023/01/18 05:01:37;;;;;;;5.40;3.50;;;;;;;-0.90;100.00;95710.84;15268662;19;20042;-55
2023/01/18 05:07:09;;;;;;;5.43;3.65;;;;;;;-0.93;100.00;95723.38;15264916;19;20018;-53
2023/01/18 05:12:27;;;;;;;4.53;3.63;;;;;;;-0.94;100.00;95720.88;15271944;19;20014;-50
2023/01/18 05:18:01;;;;;;;4.28;3.60;;;;;;;-0.94;100.00;95719.06;15271911;19;20608;-55
2023/01/18 05:23:26;;;;;;;4.30;3.40;;;;;;;-0.91;100.00;95725.03;15272822;19;20018;-49
2023/01/18 05:28:51;;;;;;;5.45;3.88;;;;;;;-0.90;100.00;95735.44;15267239;19;20018;-51
2023/01/18 05:34:19;;;;;;;7.63;3.90;;;;;;;-0.88;100.00;95730.84;15268507;19;20007;-51
2023/01/18 05:39:43;;;;;;;5.97;3.70;;;;;;;-0.88;100.00;95736.13;15262817;19;20094;-54
2023/01/18 05:45:09;;;;;;;4.30;3.85;;;;;;;-0.88;100.00;95737.94;15271847;19;20025;-53
2023/01/18 05:50:37;;;;;;;5.40;4.10;;;;;;;-0.90;100.00;95743.38;15261419;19;20015;-52
2023/01/18 05:56:04;;;;;;;5.30;4.45;;;;;;;-0.89;100.00;95745.03;15288443;19;20381;-51
2023/01/18 06:01:29;;;;;;;5.15;4.43;;;;;;;-0.91;100.00;95756.75;15279516;19;20471;-52
2023/01/18 06:06:56;;;;;;;4.53;4.00;;;;;;;-0.91;100.00;95754.09;15273477;19;20356;-52
2023/01/18 06:12:21;;;;;;;4.63;4.00;;;;;;;-0.93;100.00;95754.25;15283676;19;20042;-51
2023/01/18 06:17:53;;;;;;;6.68;4.15;;;;;;;-0.91;100.00;95762.03;15279006;19;20025;-50
2023/01/18 06:23:20;;;;;;;5.03;4.00;;;;;;;-0.91;100.00;95773.41;15279815;19;20037;-53
2023/01/18 06:28:45;;;;;;;5.20;3.90;;;;;;;-0.90;100.00;95775.06;15273818;19;20019;-53
2023/01/18 06:34:11;;;;;;;5.40;3.70;;;;;;;-0.88;100.00;95790.81;15286007;19;20438;-52
2023/01/18 06:39:38;;;;;;;5.50;4.30;;;;;;;-0.89;100.00;95807.63;15270676;19;20360;-52
2023/01/18 06:45:03;;;;;;;6.93;4.20;;;;;;;-0.90;100.00;95830.56;15278543;19;20017;-53
2023/01/18 06:50:28;;;;;;;5.00;3.80;;;;;;;-0.90;100.00;95829.75;15265278;19;20375;-52
2023/01/18 06:56:00;;;;;;;5.78;3.97;;;;;;;-0.91;100.00;95846.59;15277938;19;20014;-51
2023/01/18 07:01:24;;;;;;;4.95;3.90;;;;;;;-0.91;100.00;95849.25;15273099;19;20029;-52
2023/01/18 07:06:49;;;;;;;5.53;4.30;;;;;;;-0.90;100.00;95856.19;15275787;19;20019;-50
2023/01/18 07:12:16;;;;;;;5.60;4.00;;;;;;;-0.87;100.00;95863.78;15273535;19;20010;-50
2023/01/18 07:17:49;;;;;;;5.97;3.92;;;;;;;-0.87;100.00;95874.34;15269641;19;20463;-55
2023/01/18 07:23:14;;;;;;;4.85;3.92;;;;;;;-0.85;100.00;95889.09;15269966;19;20418;-51
2023/01/18 07:28:42;;;;;;;4.88;3.70;;;;;;;-0.85;100.00;95888.25;15275154;19;20024;-52
2023/01/18 07:34:07;;;;;;;5.95;3.60;;;;;;;-0.82;100.00;95895.91;15272997;19;20026;-54
2023/01/18 07:39:31;;;;;;;3.97;3.47;;;;;;;-0.85;100.00;95890.91;15274118;19;20543;-53
2023/01/18 07:44:59;;;;;;;5.45;3.88;;;;;;;-0.83;100.00;95892.44;15268327;19;20029;-51
2023/01/18 07:50:25;;;;;;;6.90;3.60;;;;;;;-0.83;100.00;95891.59;15248718;19;20018;-50
2023/01/18 07:55:50;;;;;;;4.53;3.45;;;;;;;-0.82;100.00;95909.91;15271852;19;20027;-51
2023/01/18 08:01:20;;;;;;;4.97;3.60;;;;;;;-0.83;100.00;95907.44;15271062;19;20006;-53
2023/01/18 08:06:45;;;;;;;4.55;3.58;;;;;;;-0.87;100.00;95916.66;15271548;19;20070;-52
2023/01/18 08:12:12;;;;;;;3.80;3.50;;;;;;;-0.89;100.00;95927.38;15274301;19;20081;-52
2023/01/18 08:17:39;;;;;;;6.80;3.75;;;;;;;-0.93;100.00;95932.16;15261057;19;20022;-52
2023/01/18 08:23:05;;;;;;;5.90;4.30;;;;;;;-0.95;100.00;95942.03;15270532;19;20014;-56
2023/01/18 08:28:31;;;;;;;5.60;3.80;;;;;;;-1.01;100.00;95953.22;15270250;19;20384;-52
2023/01/18 08:33:58;;;;;;;5.93;4.28;;;;;;;-1.06;100.00;95971.31;15270073;19;20479;-50
2023/01/18 08:39:23;;;;;;;7.00;4.07;;;;;;;-1.11;100.00;95974.41;15270138;19;20023;-48
2023/01/18 08:44:47;;;;;;;6.85;4.60;;;;;;;-1.11;100.00;95995.56;15269796;19;20018;-52
2023/01/18 08:50:15;;;;;;;6.88;4.75;;;;;;;-1.16;100.00;96002.25;15262906;19;20033;-53
2023/01/18 08:55:39;;;;;;;6.80;5.47;;;;;;;-1.20;100.00;96009.66;15263410;19;20020;-50
2023/01/18 09:00:57;;;;;;;6.43;5.25;;;;;;;-1.18;100.00;96025.34;15268963;19;20026;-51
2023/01/18 09:06:30;;;;;;;6.70;6.00;;;;;;;-1.16;100.00;96028.69;15268598;19;20442;-52
2023/01/18 09:11:55;;;;;;;8.07;6.30;;;;;;;-1.20;100.00;96037.88;15266189;19;20355;-54
2023/01/18 09:17:26;;;;;;;6.70;6.00;;;;;;;-1.21;100.00;96047.59;15265846;19;20026;-50
2023/01/18 09:22:54;;;;;;;8.63;6.15;;;;;;;-1.17;100.00;96058.72;15263645;19;20257;-52
2023/01/18 09:28:18;;;;;;;9.18;6.43;;;;;;;-1.17;100.00;96069.28;15259691;19;20026;-51
2023/01/18 09:33:43;;;;;;;6.20;5.60;;;;;;;-1.16;100.00;96071.75;15266478;19;20011;-48
2023/01/18 09:39:14;;;;;;;6.55;5.47;;;;;;;-1.14;100.00;96087.50;15267258;19;20098;-48
2023/01/18 09:44:44;;;;;;;7.10;5.97;;;;;;;-1.12;100.00;96083.72;15267176;19;20021;-52
2023/01/18 09:50:13;;;;;;;7.55;5.95;;;;;;;-1.08;100.00;96100.09;15264776;19;20091;-50
2023/01/18 09:55:49;;;;;;;8.20;6.40;;;;;;;-1.06;100.00;96108.72;15259233;19;20025;-49
2023/01/18 10:01:19;;;;;;;8.10;6.88;;;;;;;-1.01;100.00;96105.63;15258517;19;20018;-53
2023/01/18 10:06:50;;;;;;;7.95;7.15;;;;;;;-0.92;100.00;96102.09;15264878;19;20021;-51
2023/01/18 10:12:25;;;;;;;8.88;7.53;;;;;;;-0.83;100.00;96092.47;15263544;19;20580;-51
2023/01/18 10:18:00;;;;;;;9.13;8.23;;;;;;;-0.85;100.00;96100.56;15262233;19;20042;-52
2023/01/18 10:23:30;;;;;;;10.23;9.10;;;;;;;-0.73;100.00;96103.00;15265300;19;20018;-50
2023/01/18 10:29:05;;;;;;;8.65;7.80;;;;;;;-0.73;100.00;96100.34;15265583;19;20017;-51
2023/01/18 10:34:38;;;;;;;7.95;7.22;;;;;;;-0.60;100.00;96107.91;15257942;19;20309;-52
2023/01/18 10:40:08;;;;;;;7.93;6.78;;;;;;;-0.55;100.00;96118.91;15267152;19;20017;-48
2023/01/18 10:45:37;;;;;;;8.52;7.18;;;;;;;-0.49;100.00;96120.94;15277740;19;20022;-52
2023/01/18 10:51:04;;;;;;;7.93;7.00;;;;;;;-0.42;100.00;96132.59;15279992;19;20021;-53
2023/01/18 10:56:32;;;;;;;7.53;6.13;;;;;;;-0.29;100.00;96139.34;15268615;19;20039;-50
2023/01/18 11:02:04;;;;;;;7.72;5.93;;;;;;;-0.25;100.00;96138.88;15271886;19;20101;-51
2023/01/18 11:07:30;;;;;;;9.35;6.55;;;;;;;-0.28;100.00;96146.28;15272139;19;20014;-53
2023/01/18 11:12:56;;;;;;;10.27;9.15;;;;;;;-0.40;100.00;96148.31;15278274;19;20027;-50
2023/01/18 11:18:30;;;;;;;10.25;9.30;;;;;;;-0.44;100.00;96154.88;15268559;19;20018;-49
2023/01/18 11:23:55;;;;;;;9.13;7.82;;;;;;;-0.42;100.00;96159.06;15273703;19;20450;-50
2023/01/18 11:29:22;;;;;;;8.43;7.43;;;;;;;-0.30;100.00;96156.19;15269403;19;20106;-51
2023/01/18 11:34:53;;;;;;;6.80;6.10;;;;;;;-0.26;100.00;96157.53;15272824;19;20014;-52
2023/01/18 11:40:32;;;;;;;6.97;6.28;;;;;;;-0.19;100.00;96162.09;15264935;19;20018;-55
2023/01/18 11:46:03;;;;;;;7.00;6.13;;;;;;;-0.08;100.00;96171.63;15272859;19;20014;-51
2023/01/18 11:51:35;;;;;;;8.50;4.22;;;;;;;-0.15;100.00;96162.63;15270891;19;20109;-52
2023/01/18 11:57:03;;;;;;;4.97;3.92;;;;;;;-0.08;100.00;96160.22;15272547;19;20093;-55
2023/01/18 12:02:54;;;;;;;6.63;4.38;;;;;;;-0.13;100.00;96173.88;15268784;19;20010;-50
2023/01/18 12:08:37;;;;;;;6.53;4.23;;;;;;;-0.20;100.00;96178.94;15271086;19;20504;-51
2023/01/18 12:14:11;;;;;;;5.88;4.35;;;;;;;-0.19;100.00;96185.09;15270845;19;20251;-52
2023/01/18 12:19:58;;;;;;;7.10;4.95;;;;;;;-0.20;100.00;96202.75;15265789;19;20018;-55
2023/01/18 12:25:47;;;;;;;5.35;4.43;;;;;;;-0.16;100.00;96227.09;15270469;19;20014;-53
2023/01/18 12:31:48;;;;;;;5.68;3.92;;;;;;;-0.14;100.00;96211.09;15267439;19;20014;-49
2023/01/18 12:37:40;;;;;;;5.85;4.40;;;;;;;-0.14;100.00;96230.44;15264401;19;20014;-50
2023/01/18 12:43:23;;;;;;;5.68;4.43;;;;;;;-0.16;100.00;96238.53;15266222;19;20039;-50
2023/01/18 12:48:57;;;;;;;8.02;4.82;;;;;;;-0.10;100.00;96254.78;15269018;19;20085;-52
2023/01/18 12:54:30;;;;;;;6.97;4.20;;;;;;;-0.16;100.00;96261.50;15265306;19;20082;-56
2023/01/18 13:00:03;;;;;;;4.55;3.55;;;;;;;-0.24;100.00;96264.91;15268087;19;20019;-52
2023/01/18 13:05:36;;;;;;;6.25;3.90;;;;;;;-0.16;100.00;96269.44;15266907;19;20050;-50
2023/01/18 13:11:08;;;;;;;6.75;3.90;;;;;;;-0.23;100.00;96287.72;15268178;19;20093;-59
2023/01/18 13:16:53;;;;;;;6.38;3.40;;;;;;;-0.38;100.00;96281.25;15255650;19;20026;-76
2023/01/18 13:22:27;;;;;;;5.30;3.50;;;;;;;-0.29;100.00;96296.25;15265596;19;20017;-75
2023/01/18 13:28:05;;;;;;;4.38;2.95;;;;;;;-0.28;100.00;96291.78;15270780;19;20037;-75
2023/01/18 13:33:35;;;;;;;6.03;2.88;;;;;;;-0.34;100.00;96291.41;15267068;19;20024;-74
2023/01/18 13:39:02;;;;;;;4.15;3.05;;;;;;;-0.28;100.00;96297.94;15263838;19;20493;-74
2023/01/18 13:44:31;;;;;;;5.00;2.88;;;;;;;-0.26;100.00;96316.28;15264468;19;20082;-75
2023/01/18 13:49:58;;;;;;;6.60;2.80;;;;;;;-0.29;100.00;96321.91;15260868;19;20026;-74
2023/01/18 13:55:30;;;;;;;7.70;2.88;;;;;;;-0.44;100.00;96327.66;15263020;19;20284;-73
2023/01/18 14:00:57;;;;;;;5.25;3.00;;;;;;;-0.39;100.00;96343.91;15266149;19;20031;-74
2023/01/18 14:06:33;;;;;;;6.63;2.90;;;;;;;-0.43;100.00;96369.00;15263483;19;20078;-75
2023/01/18 14:12:04;;;;;;;5.63;2.53;;;;;;;-0.44;100.00;96367.31;15259229;19;20078;-75
2023/01/18 14:17:41;;;;;;;3.53;2.05;;;;;;;-0.45;100.00;96378.88;15275590;19;20018;-76
2023/01/18 14:23:44;;;;;;;3.38;2.10;;;;;;;-0.48;100.00;96381.81;15280986;19;20022;-75
2023/01/18 14:29:12;;;;;;;3.08;2.15;;;;;;;-0.43;100.00;96384.03;15279316;19;20006;-76
2023/01/18 14:34:40;;;;;;;3.90;1.80;;;;;;;-0.48;100.00;96405.59;15277230;19;20009;-76
2023/01/18 14:40:27;;;;;;;5.05;2.20;;;;;;;-0.55;100.00;96410.63;15280101;19;20371;-74
2023/01/18 14:45:59;;;;;;;4.70;2.47;;;;;;;-0.53;100.00;96415.78;15267710;19;20013;-76
2023/01/18 14:51:26;;;;;;;3.10;1.70;;;;;;;-0.60;100.00;96430.53;15271503;19;20015;-75
2023/01/18 14:57:02;;;;;;;3.67;1.90;;;;;;;-0.63;100.00;96452.81;15272369;19;20010;-75
2023/01/18 15:02:32;;;;;;;5.82;2.42;;;;;;;-0.69;100.00;96466.59;15276330;19;20086;-74
2023/01/18 15:08:00;;;;;;;9.77;3.28;;;;;;;-0.79;100.00;96490.41;15275534;19;20015;-74
2023/01/18 15:13:34;;;;;;;6.32;3.95;;;;;;;-0.85;100.00;96509.44;15271378;19;20428;-75
2023/01/18 15:19:01;;;;;;;6.80;3.50;;;;;;;-0.90;100.00;96524.88;15289799;19;20051;-75
2023/01/18 15:24:28;;;;;;;7.38;4.68;;;;;;;-0.95;100.00;96538.50;15303582;19;20014;-78
2023/01/18 15:29:58;;;;;;;11.60;5.68;;;;;;;-1.02;100.00;96559.34;15283327;19;20014;-75
2023/01/18 15:35:24;;;;;;;5.47;4.50;;;;;;;-1.01;100.00;96566.31;15278729;19;20010;-76
2023/01/18 15:40:58;;;;;;;7.10;4.80;;;;;;;-1.03;100.00;96578.81;15277326;19;20138;-75
2023/01/18 15:46:27;;;;;;;8.55;4.70;;;;;;;-1.04;100.00;96581.59;15266432;19;20018;-78
2023/01/18 15:51:55;;;;;;;8.68;4.50;;;;;;;-1.03;100.00;96589.41;15278292;19;20015;-78
2023/01/18 15:57:26;;;;;;;6.82;4.82;;;;;;;-1.01;100.00;96594.53;15283593;19;20011;-76
2023/01/18 16:02:56;;;;;;;6.45;4.55;;;;;;;-0.99;100.00;96589.97;15290070;19;20025;-75
2023/01/18 16:08:25;;;;;;;10.93;5.40;;;;;;;-0.99;100.00;96603.19;15281516;19;20011;-76
2023/01/18 16:14:06;;;;;;;7.90;5.20;;;;;;;-1.04;100.00;96614.16;15275785;19;20018;-76
2023/01/18 16:19:37;;;;;;;9.20;5.00;;;;;;;-1.10;100.00;96626.09;15272278;19;20094;-77
2023/01/18 16:25:04;;;;;;;7.72;5.20;;;;;;;-1.09;100.00;96629.56;15282279;19;20030;-74
2023/01/18 16:30:33;;;;;;;8.27;4.82;;;;;;;-1.09;100.00;96634.84;15273315;19;20101;-76
2023/01/18 16:36:01;;;;;;;8.48;5.60;;;;;;;-1.12;100.00;96650.97;15275566;19;20018;-75
2023/01/18 16:41:26;;;;;;;7.53;5.35;;;;;;;-1.14;100.00;96653.75;15275851;19;20011;-79
2023/01/18 16:46:52;;;;;;;8.65;5.75;;;;;;;-1.16;100.00;96662.78;15282968;19;20621;-76
2023/01/18 16:52:20;;;;;;;6.93;5.40;;;;;;;-1.22;100.00;96666.78;15270662;19;20359;-79
2023/01/18 16:57:45;;;;;;;8.73;5.68;;;;;;;-1.27;100.00;96672.47;15272606;19;20011;-78
2023/01/18 17:03:10;;;;;;;9.32;6.10;;;;;;;-1.27;100.00;96682.19;15267604;19;20033;-79
2023/01/18 17:08:37;;;;;;;8.02;5.63;;;;;;;-1.29;100.00;96690.25;15274347;19;20014;-78
2023/01/18 17:14:02;;;;;;;9.40;5.60;;;;;;;-1.30;100.00;96704.41;15272551;19;20021;-79
2023/01/18 17:19:28;;;;;;;8.70;6.05;;;;;;;-1.30;100.00;96714.97;15274741;19;20009;-76
2023/01/18 17:24:56;;;;;;;9.60;6.20;;;;;;;-1.28;100.00;96734.19;15268331;19;20014;-79
2023/01/18 17:30:23;;;;;;;8.48;6.18;;;;;;;-1.28;100.00;96728.06;15278443;19;20355;-76
2023/01/18 17:35:49;;;;;;;8.75;6.22;;;;;;;-1.33;100.00;96741.66;15271917;19;20015;-76
2023/01/18 17:41:24;;;;;;;10.32;6.57;;;;;;;-1.40;100.00;96757.16;15285099;19;20031;-77
2023/01/18 17:46:49;;;;;;;10.23;7.15;;;;;;;-1.49;100.00;96757.94;15262293;19;20010;-79
2023/01/18 17:52:13;;;;;;;11.15;6.95;;;;;;;-1.53;100.00;96761.81;15290770;19;20017;-79
2023/01/18 17:57:41;;;;;;;9.40;6.95;;;;;;;-1.55;100.00;96772.50;15291040;19;20018;-78
2023/01/18 18:03:05;;;;;;;9.73;7.45;;;;;;;-1.61;100.00;96775.66;15297440;19;20014;-78
2023/01/18 18:08:30;;;;;;;9.65;7.43;;;;;;;-1.68;100.00;96784.19;15290030;19;20086;-76
2023/01/18 18:13:58;;;;;;;10.77;7.95;;;;;;;-1.77;100.00;96785.78;15292592;19;20025;-77
2023/01/18 18:19:24;;;;;;;10.55;7.00;;;;;;;-1.84;100.00;96800.44;15289983;19;20013;-74
2023/01/18 18:24:48;;;;;;;9.18;7.30;;;;;;;-1.96;100.00;96803.09;15283637;19;20015;-74
2023/01/18 18:30:17;;;;;;;12.02;7.70;;;;;;;-2.09;100.00;96810.31;15273384;19;20010;-72
2023/01/18 18:35:42;;;;;;;12.30;6.80;;;;;;;-2.16;100.00;96812.59;15285057;19;20016;-73
2023/01/18 18:41:08;;;;;;;9.43;6.50;;;;;;;-2.22;100.00;96816.56;15288744;19;20026;-74
2023/01/18 18:46:35;;;;;;;11.75;6.72;;;;;;;-2.30;100.00;96824.25;15282880;19;20018;-74
2023/01/18 18:52:01;;;;;;;7.97;6.45;;;;;;;-2.36;100.00;96837.91;15288299;19;20045;-72
2023/01/18 18:57:27;;;;;;;8.55;6.35;;;;;;;-2.42;100.00;96841.03;15285155;19;20048;-75
2023/01/18 19:02:59;;;;;;;10.20;6.50;;;;;;;-2.48;100.00;96834.44;15281027;19;20009;-75
2023/01/18 19:08:24;;;;;;;9.20;6.63;;;;;;;-2.57;100.00;96848.31;15284440;19;20434;-73
2023/01/18 19:13:49;;;;;;;11.63;6.43;;;;;;;-2.66;100.00;96842.78;15315625;19;20014;-75
2023/01/18 19:19:18;;;;;;;10.00;6.70;;;;;;;-2.73;100.00;96857.41;15277424;19;20037;-73
2023/01/18 19:24:43;;;;;;;12.57;9.63;;;;;;;-2.82;100.00;96872.13;15275106;19;20298;-73
2023/01/18 19:30:11;;;;;;;12.50;8.80;;;;;;;-2.92;100.00;96873.78;15286703;19;20021;-75
2023/01/18 19:35:42;;;;;;;18.23;9.70;;;;;;;-3.04;100.00;96879.97;15265854;19;20022;-73
2023/01/18 19:41:07;;;;;;;15.80;11.80;;;;;;;-3.18;100.00;96884.44;15280933;19;20027;-75
2023/01/18 19:46:33;;;;;;;40.47;22.08;;;;;;;-3.23;100.00;96883.13;15276681;19;20009;-73
2023/01/18 19:52:00;;;;;;;14.65;8.93;;;;;;;-3.30;100.00;96903.78;15280193;19;20110;-75
2023/01/18 19:57:26;;;;;;;15.63;8.63;;;;;;;-3.35;100.00;96914.66;15280906;19;20018;-75
2023/01/18 20:02:52;;;;;;;14.45;9.68;;;;;;;-3.41;100.00;96918.59;15287929;19;20489;-74
2023/01/18 20:08:21;;;;;;;14.57;8.80;;;;;;;-3.45;100.00;96922.38;15280139;19;20492;-76
2023/01/18 20:13:47;;;;;;;12.73;8.57;;;;;;;-3.50;100.00;96927.16;15281336;19;20043;-78
2023/01/18 20:19:14;;;;;;;10.95;8.25;;;;;;;-3.58;100.00;96934.72;15301378;19;20010;-80
2023/01/18 20:24:43;;;;;;;12.55;8.63;;;;;;;-3.63;100.00;96931.59;15293234;19;20376;-79
2023/01/18 20:30:13;;;;;;;11.40;8.18;;;;;;;-3.69;100.00;96927.63;15290157;19;20010;-80
2023/01/18 20:35:38;;;;;;;10.25;7.10;;;;;;;-3.77;100.00;96941.31;15287965;19;20018;-81
2023/01/18 20:41:07;;;;;;;9.57;6.93;;;;;;;-3.83;100.00;96941.75;15293785;19;20015;-79
2023/01/18 20:46:31;;;;;;;10.45;6.95;;;;;;;-3.91;100.00;96939.66;15284283;19;20081;-79
2023/01/18 20:51:56;;;;;;;8.18;5.97;;;;;;;-3.95;100.00;96947.88;15298297;19;20022;-81
2023/01/18 20:57:26;;;;;;;8.57;6.55;;;;;;;-4.00;100.00;96957.88;15286357;19;20009;-79
2023/01/18 21:02:51;;;;;;;8.38;6.20;;;;;;;-4.08;100.00;96961.91;15290742;19;20010;-78
2023/01/18 21:08:18;;;;;;;11.48;6.50;;;;;;;-4.13;100.00;96966.63;15291489;19;20010;-79
2023/01/18 21:13:46;;;;;;;9.45;6.35;;;;;;;-4.18;100.00;96979.25;15283464;19;20025;-80
2023/01/18 21:19:11;;;;;;;12.50;7.63;;;;;;;-4.24;100.00;96982.28;15280262;19;20086;-78
2023/01/18 21:24:36;;;;;;;10.90;7.68;;;;;;;-4.22;100.00;96989.13;15280398;19;20028;-77
2023/01/18 21:30:03;;;;;;;11.98;7.10;;;;;;;-4.24;100.00;96990.19;15284228;19;20006;-78
2023/01/18 21:35:29;;;;;;;12.13;7.90;;;;;;;-4.24;100.00;97011.22;15278840;19;20014;-78
2023/01/18 21:40:53;;;;;;;13.88;7.88;;;;;;;-4.28;100.00;97012.34;15280310;19;20010;-78
2023/01/18 21:46:21;;;;;;;13.50;7.78;;;;;;;-4.30;100.00;97020.34;15280922;19;20014;-80
2023/01/18 21:57:23;;;;;;;13.95;8.60;;;;;;;-4.40;100.00;97035.88;15285600;19;20018;-79
2023/01/18 22:02:51;;;;;;;11.55;8.18;;;;;;;-4.42;100.00;97045.69;15288379;19;20045;-79
2023/01/18 22:08:17;;;;;;;12.13;8.13;;;;;;;-4.38;100.00;97056.84;15293008;19;20006;-79
2023/01/18 22:13:41;;;;;;;12.32;8.23;;;;;;;-4.42;100.00;97061.47;15281688;19;20050;-79
2023/01/18 22:19:09;;;;;;;14.00;7.95;;;;;;;-4.44;100.00;97073.88;15283465;19;20019;-79
2023/01/18 22:24:34;;;;;;;15.38;9.35;;;;;;;-4.47;100.00;97079.31;15275645;19;20109;-79
2023/01/18 22:29:59;;;;;;;13.25;8.60;;;;;;;-4.50;100.00;97074.25;15278771;19;20014;-79
2023/01/18 22:35:26;;;;;;;12.15;8.50;;;;;;;-4.56;100.00;97075.50;15264701;19;20037;-47
2023/01/18 22:40:51;;;;;;;16.17;8.82;;;;;;;-4.57;100.00;97089.56;15280711;19;20014;-49
2023/01/18 22:46:16;;;;;;;10.85;6.97;;;;;;;-4.62;100.00;97086.41;15269901;19;20011;-47
2023/01/18 22:51:45;;;;;;;8.82;6.82;;;;;;;-4.67;100.00;97077.97;15281220;19;20026;-56
2023/01/18 22:57:10;;;;;;;10.40;7.07;;;;;;;-4.75;100.00;97075.00;15272077;19;20014;-47
2023/01/18 23:02:35;;;;;;;11.45;7.25;;;;;;;-4.81;100.00;97076.25;15278690;19;20023;-46
2023/01/18 23:08:03;;;;;;;15.18;7.38;;;;;;;-4.85;100.00;97077.38;15276685;19;20017;-52
2023/01/18 23:13:28;;;;;;;8.88;6.22;;;;;;;-4.88;100.00;97075.81;15278112;19;20081;-46
2023/01/18 23:18:52;;;;;;;10.23;5.85;;;;;;;-4.92;100.00;97090.06;15271713;19;20383;-46
2023/01/18 23:24:20;;;;;;;8.05;6.18;;;;;;;-4.99;100.00;97086.97;15272811;19;20135;-46
2023/01/18 23:29:48;;;;;;;6.03;5.32;;;;;;;-5.07;100.00;97080.56;15272684;19;20018;-46
2023/01/18 23:35:13;;;;;;;7.25;5.60;;;;;;;-5.03;100.00;97097.78;15266984;19;20026;-47
2023/01/18 23:57:35;;;;;;;11.35;6.85;;;;;;;-5.09;100.00;97121.81;15268253;19;20018;-47
